WetterOnline ( https://www.wetteronline.de )

Wetter aktuell Damme

Aktuelles Wetter: Diepholz (40m)

6-stündlich | Neueste Meldungen
Ortszeit Temperatur Wetter
Mi, 04.08. 20:00 19.0° C bedeckt
Mi, 04.08. 14:00 19.6° C bewölkt
Mi, 04.08. 8:00 13.6° C leichter Regen
Mi, 04.08. 2:00 15.3° C leichter Regen
Di, 03.08. 20:00 18.5° C bedeckt
Di, 03.08. 14:00 19.3° C bedeckt
Di, 03.08. 8:00 14.5° C wolkig
Di, 03.08. 2:00 12.4° C bedeckt
Ortszeit Temperatur Wetter
Mi, 04.08. 23:30 15.5° C bedeckt
Mi, 04.08. 23:20 15.5° C bedeckt
Mi, 04.08. 23:10 15.5° C wolkig
Mi, 04.08. 23:00 15.4° C leicht bewölkt
Mi, 04.08. 22:50 15.4° C leicht bewölkt
Mi, 04.08. 22:40 15.3° C leicht bewölkt
Mi, 04.08. 22:30 15.5° C leicht bewölkt
Mi, 04.08. 22:00 16.5° C fast wolkenlos
Mi, 04.08. 21:30 16.9° C leicht bewölkt
Mi, 04.08. 21:00 17.2° C bedeckt
Mi, 04.08. 20:30 17.6° C Sprühregen
Ortszeit Relative Feuchte Sichtweite
Mi, 04.08. 20:00 72% 55 km
Mi, 04.08. 14:00 64% 45 km
Mi, 04.08. 8:00 96% 17 km
Mi, 04.08. 2:00 86% 28 km
Di, 03.08. 20:00 63% 60 km
Di, 03.08. 14:00 52% >70 km
Di, 03.08. 8:00 84% 40 km
Di, 03.08. 2:00 94% 35 km
Ortszeit Relative Feuchte Sichtweite
Mi, 04.08. 23:30 91% 40 km
Mi, 04.08. 23:20 91% -
Mi, 04.08. 23:10 91% -
Mi, 04.08. 23:00 91% 30 km
Mi, 04.08. 22:50 91% -
Mi, 04.08. 22:40 93% -
Mi, 04.08. 22:30 92% 30 km
Mi, 04.08. 22:00 89% 30 km
Mi, 04.08. 21:30 87% 40 km
Mi, 04.08. 21:00 86% 40 km
Mi, 04.08. 20:30 84% 30 km
Ortszeit Niederschlagsmenge Niederschlagsart
Mi, 04.08. 20:00 0.4 l/m2 in 12 Std. Regen
Mi, 04.08. 14:00 0.3 l/m2 in 6 Std. Regen
Mi, 04.08. 8:00 3 l/m2 in 12 Std. Regen
Mi, 04.08. 2:00 0.1 l/m2 in 6 Std. Regen
Di, 03.08. 20:00 0.1 l/m2 in 12 Std. Regen
Di, 03.08. 14:00 0.0 l/m2 in 6 Std. -
Di, 03.08. 8:00 0.0 l/m2 in 12 Std. -
Di, 03.08. 2:00 0.0 l/m2 in 6 Std. -
Ortszeit Niederschlagsmenge Niederschlagsart
Mi, 04.08. 23:30 0.0 l/m2 in 1 Std. -
Mi, 04.08. 23:20 keine Meldung -
Mi, 04.08. 23:10 keine Meldung -
Mi, 04.08. 23:00 0.0 l/m2 in 1 Std. Regen
Mi, 04.08. 22:50 keine Meldung -
Mi, 04.08. 22:40 keine Meldung -
Mi, 04.08. 22:30 0.0 l/m2 in 1 Std. -
Mi, 04.08. 22:00 0.0 l/m2 in 1 Std. -
Mi, 04.08. 21:30 0.0 l/m2 in 1 Std. -
Mi, 04.08. 21:00 0.1 l/m2 in 1 Std. Regen
Mi, 04.08. 20:30 0.1 l/m2 in 1 Std. -
Ortszeit Stärke Spitze Richtung
km/h Bft. km/h Grad Sektor
Mi, 04.08. 20:00 14 3 29 90° O
Mi, 04.08. 14:00 11 2 22 20° N
Mi, 04.08. 8:00 6 1 15 10° N
Mi, 04.08. 2:00 4 1 14 70° O
Di, 03.08. 20:00 4 1 18 150° SO
Di, 03.08. 14:00 7 2 18 220° SW
Di, 03.08. 8:00 0 0 7 - -
Di, 03.08. 2:00 4 1 18 200° S
Ortszeit Stärke Spitze Richtung
km/h Bft. km/h Grad Sektor
Mi, 04.08. 23:30 6 1 15 60° NO
Mi, 04.08. 23:20 6 1 - 60° NO
Mi, 04.08. 23:10 7 2 - 70° O
Mi, 04.08. 23:00 6 1 9 70° O
Mi, 04.08. 22:50 6 1 - 70° O
Mi, 04.08. 22:40 6 1 - 70° O
Mi, 04.08. 22:30 7 2 11 80° O
Mi, 04.08. 22:00 2 1 11 10° N
Mi, 04.08. 21:30 4 1 11 30° NO
Mi, 04.08. 21:00 7 2 29 60° NO
Mi, 04.08. 20:30 7 2 29 70° O
Ortszeit Untergrenze Bedeckung Gattung
total tief tief mittel hoch
Mi, 04.08. 20:00 810 m 8/8 8/8 - - -
Mi, 04.08. 14:00 1500 m 7/8 7/8 - - -
Mi, 04.08. 8:00 1500 m 7/8 7/8 - - -
Mi, 04.08. 2:00 1230 m 8/8 8/8 - - -
Di, 03.08. 20:00 2100 m 8/8 8/8 - - -
Di, 03.08. 14:00 1800 m 8/8 8/8 - - -
Di, 03.08. 8:00 1800 m 7/8 3/8 - - -
Di, 03.08. 2:00 2400 m 8/8 8/8 - - -
Ortszeit Bedeckungsgrad in Achtel und Wolkenuntergrenze
Mi, 04.08. 23:30 4(3000m) 8(3600m)
Mi, 04.08. 23:20 4(3000m) 8(3600m)
Mi, 04.08. 23:10 3(3000m) 6(3600m)
Mi, 04.08. 23:00 1(3000m) 6(3600m)
Mi, 04.08. 22:50 1(3000m) 2(3900m)
Mi, 04.08. 22:40 3(3000m) 3(3900m)
Mi, 04.08. 22:30 2(3000m) 3(3900m)
Mi, 04.08. 22:00 1(2700m)
Mi, 04.08. 21:30 4(3000m)
Mi, 04.08. 21:00 8(2700m)
Mi, 04.08. 20:30 2(1140m) 7(1500m) 8(2700m)
Ortszeit Luftdruck NN (hPa) Tendenz (hPa in 3 Std.)
Mi, 04.08. 20:00 1013 - 0,6
Mi, 04.08. 14:00 1014 - 0,4
Mi, 04.08. 8:00 1015 + 0,5
Mi, 04.08. 2:00 1014 + 0,4
Di, 03.08. 20:00 1013 - 0,1
Di, 03.08. 14:00 1014 - 0,6
Di, 03.08. 8:00 1015 + 0,1
Di, 03.08. 2:00 1015 - 0,1
Ortszeit Luftdruck NN (hPa) Tendenz (hPa in 3 Std.)
Mi, 04.08. 23:30 1013 + 0,3
Mi, 04.08. 23:20 1013 keine Meldung
Mi, 04.08. 23:10 1013 keine Meldung
Mi, 04.08. 23:00 1013 + 0,6
Mi, 04.08. 22:50 1013 keine Meldung
Mi, 04.08. 22:40 1013 keine Meldung
Mi, 04.08. 22:30 1013 + 0,7
Mi, 04.08. 22:00 1013 + 0,6
Mi, 04.08. 21:30 1013 + 0,1
Mi, 04.08. 21:00 1013 + 0,1
Mi, 04.08. 20:30 1013 - 0,4
Ortszeit Schneehöhe (cm)
Mi, 04.08. 20:00 -
Mi, 04.08. 14:00 -
Mi, 04.08. 8:00 -
Mi, 04.08. 2:00 -
Di, 03.08. 20:00 -
Di, 03.08. 14:00 -
Di, 03.08. 8:00 -
Di, 03.08. 2:00 -
Ortszeit Schneehöhe (cm)
Mi, 04.08. 23:30 -
Mi, 04.08. 23:20 -
Mi, 04.08. 23:10 -
Mi, 04.08. 23:00 -
Mi, 04.08. 22:50 -
Mi, 04.08. 22:40 -
Mi, 04.08. 22:30 -
Mi, 04.08. 22:00 -
Mi, 04.08. 21:30 -
Mi, 04.08. 21:00 -
Mi, 04.08. 20:30 -
Link zu dieser Seite / Seite empfehlen

Das Wetter in ...